sensor_id;sensor_type;location;lat;lon;timestamp;P1;durP1;ratioP1;P2;durP2;ratioP2
77004;SDS011;67261;53.132;18.006;2024-01-30T00:01:56;46.10;;;20.50;;
77004;SDS011;67261;53.132;18.006;2024-01-30T00:04:23;40.20;;;20.40;;
77004;SDS011;67261;53.132;18.006;2024-01-30T00:06:50;38.10;;;18.50;;
77004;SDS011;67261;53.132;18.006;2024-01-30T00:09:21;41.90;;;18.90;;
77004;SDS011;67261;53.132;18.006;2024-01-30T00:11:48;40.00;;;19.30;;
77004;SDS011;67261;53.132;18.006;2024-01-30T00:14:15;40.10;;;17.90;;
77004;SDS011;67261;53.132;18.006;2024-01-30T00:16:42;37.20;;;16.90;;
77004;SDS011;67261;53.132;18.006;2024-01-30T00:19:09;35.10;;;15.90;;
77004;SDS011;67261;53.132;18.006;2024-01-30T00:21:36;38.60;;;18.70;;
77004;SDS011;67261;53.132;18.006;2024-01-30T00:24:03;37.80;;;18.00;;
77004;SDS011;67261;53.132;18.006;2024-01-30T00:26:30;40.20;;;19.00;;
77004;SDS011;67261;53.132;18.006;2024-01-30T00:28:57;40.40;;;19.40;;
77004;SDS011;67261;53.132;18.006;2024-01-30T00:31:25;38.30;;;18.90;;
77004;SDS011;67261;53.132;18.006;2024-01-30T00:33:53;40.70;;;20.20;;
77004;SDS011;67261;53.132;18.006;2024-01-30T00:36:20;38.20;;;18.10;;
77004;SDS011;67261;53.132;18.006;2024-01-30T00:38:47;34.30;;;17.50;;
77004;SDS011;67261;53.132;18.006;2024-01-30T00:41:14;35.50;;;17.40;;
77004;SDS011;67261;53.132;18.006;2024-01-30T00:43:44;31.20;;;14.10;;
77004;SDS011;67261;53.132;18.006;2024-01-30T00:46:11;35.20;;;15.80;;
77004;SDS011;67261;53.132;18.006;2024-01-30T00:48:38;30.10;;;14.90;;
77004;SDS011;67261;53.132;18.006;2024-01-30T00:51:05;29.50;;;15.10;;
77004;SDS011;67261;53.132;18.006;2024-01-30T00:53:32;33.10;;;15.70;;
77004;SDS011;67261;53.132;18.006;2024-01-30T00:55:59;30.10;;;14.10;;
77004;SDS011;67261;53.132;18.006;2024-01-30T00:58:26;31.80;;;13.60;;
77004;SDS011;67261;53.132;18.006;2024-01-30T01:00:53;33.60;;;15.80;;
77004;SDS011;67261;53.132;18.006;2024-01-30T01:03:20;31.70;;;15.80;;
77004;SDS011;67261;53.132;18.006;2024-01-30T01:05:48;35.60;;;16.90;;
77004;SDS011;67261;53.132;18.006;2024-01-30T01:08:15;33.10;;;15.50;;
77004;SDS011;67261;53.132;18.006;2024-01-30T01:10:42;32.20;;;14.80;;
77004;SDS011;67261;53.132;18.006;2024-01-30T01:13:09;35.30;;;15.80;;
77004;SDS011;67261;53.132;18.006;2024-01-30T01:15:36;29.50;;;15.30;;
77004;SDS011;67261;53.132;18.006;2024-01-30T01:18:03;31.00;;;15.20;;
77004;SDS011;67261;53.132;18.006;2024-01-30T01:20:30;29.00;;;14.40;;
77004;SDS011;67261;53.132;18.006;2024-01-30T01:22:57;31.60;;;16.20;;
77004;SDS011;67261;53.132;18.006;2024-01-30T01:25:24;31.30;;;15.20;;
77004;SDS011;67261;53.132;18.006;2024-01-30T01:27:51;33.00;;;15.50;;
77004;SDS011;67261;53.132;18.006;2024-01-30T01:30:19;30.60;;;16.30;;
77004;SDS011;67261;53.132;18.006;2024-01-30T01:32:48;31.80;;;14.80;;
77004;SDS011;67261;53.132;18.006;2024-01-30T01:35:22;29.50;;;14.30;;
77004;SDS011;67261;53.132;18.006;2024-01-30T01:37:51;29.50;;;14.30;;
77004;SDS011;67261;53.132;18.006;2024-01-30T01:40:24;29.10;;;13.90;;
77004;SDS011;67261;53.132;18.006;2024-01-30T01:42:53;29.60;;;14.90;;
77004;SDS011;67261;53.132;18.006;2024-01-30T01:45:22;32.90;;;14.70;;
77004;SDS011;67261;53.132;18.006;2024-01-30T01:47:52;28.60;;;14.50;;
77004;SDS011;67261;53.132;18.006;2024-01-30T01:50:23;31.30;;;14.70;;
77004;SDS011;67261;53.132;18.006;2024-01-30T01:52:51;30.50;;;14.40;;
77004;SDS011;67261;53.132;18.006;2024-01-30T01:55:20;26.90;;;13.10;;
77004;SDS011;67261;53.132;18.006;2024-01-30T01:57:52;30.80;;;15.00;;
77004;SDS011;67261;53.132;18.006;2024-01-30T02:00:20;33.00;;;14.50;;
77004;SDS011;67261;53.132;18.006;2024-01-30T02:02:47;27.50;;;13.50;;
77004;SDS011;67261;53.132;18.006;2024-01-30T02:05:14;31.90;;;14.20;;
77004;SDS011;67261;53.132;18.006;2024-01-30T02:07:42;28.50;;;15.20;;
77004;SDS011;67261;53.132;18.006;2024-01-30T02:10:10;33.60;;;15.50;;
77004;SDS011;67261;53.132;18.006;2024-01-30T02:12:37;31.30;;;13.70;;
77004;SDS011;67261;53.132;18.006;2024-01-30T02:15:04;25.90;;;13.40;;
77004;SDS011;67261;53.132;18.006;2024-01-30T02:17:32;31.50;;;14.80;;
77004;SDS011;67261;53.132;18.006;2024-01-30T02:19:59;30.10;;;15.70;;
77004;SDS011;67261;53.132;18.006;2024-01-30T02:22:26;30.00;;;15.50;;
77004;SDS011;67261;53.132;18.006;2024-01-30T02:24:53;30.90;;;14.30;;
77004;SDS011;67261;53.132;18.006;2024-01-30T02:27:20;30.40;;;14.90;;
77004;SDS011;67261;53.132;18.006;2024-01-30T02:29:47;25.70;;;12.90;;
77004;SDS011;67261;53.132;18.006;2024-01-30T02:32:14;31.50;;;14.60;;
77004;SDS011;67261;53.132;18.006;2024-01-30T02:34:41;23.30;;;12.10;;
77004;SDS011;67261;53.132;18.006;2024-01-30T02:37:08;31.40;;;15.20;;
77004;SDS011;67261;53.132;18.006;2024-01-30T02:39:35;31.00;;;15.50;;
77004;SDS011;67261;53.132;18.006;2024-01-30T02:42:02;36.60;;;16.70;;
77004;SDS011;67261;53.132;18.006;2024-01-30T02:44:29;38.90;;;18.10;;
77004;SDS011;67261;53.132;18.006;2024-01-30T02:46:56;33.30;;;16.10;;
77004;SDS011;67261;53.132;18.006;2024-01-30T02:49:23;33.20;;;14.80;;
77004;SDS011;67261;53.132;18.006;2024-01-30T02:51:51;31.90;;;16.10;;
77004;SDS011;67261;53.132;18.006;2024-01-30T02:54:19;33.30;;;15.60;;
77004;SDS011;67261;53.132;18.006;2024-01-30T02:56:46;32.10;;;15.00;;
77004;SDS011;67261;53.132;18.006;2024-01-30T02:59:14;35.10;;;14.60;;
77004;SDS011;67261;53.132;18.006;2024-01-30T03:01:42;36.50;;;16.30;;
77004;SDS011;67261;53.132;18.006;2024-01-30T03:04:13;32.00;;;15.80;;
77004;SDS011;67261;53.132;18.006;2024-01-30T03:06:44;36.40;;;17.90;;
77004;SDS011;67261;53.132;18.006;2024-01-30T03:09:11;45.20;;;19.50;;
77004;SDS011;67261;53.132;18.006;2024-01-30T03:11:38;34.90;;;18.00;;
77004;SDS011;67261;53.132;18.006;2024-01-30T03:14:05;35.70;;;18.30;;
77004;SDS011;67261;53.132;18.006;2024-01-30T03:16:32;35.30;;;19.10;;
77004;SDS011;67261;53.132;18.006;2024-01-30T03:18:58;32.70;;;16.50;;
77004;SDS011;67261;53.132;18.006;2024-01-30T03:21:27;34.80;;;16.10;;
77004;SDS011;67261;53.132;18.006;2024-01-30T03:23:54;35.60;;;17.10;;
77004;SDS011;67261;53.132;18.006;2024-01-30T03:26:21;37.30;;;17.30;;
77004;SDS011;67261;53.132;18.006;2024-01-30T03:28:48;36.30;;;16.40;;
77004;SDS011;67261;53.132;18.006;2024-01-30T03:31:15;35.70;;;18.80;;
77004;SDS011;67261;53.132;18.006;2024-01-30T03:33:42;33.70;;;17.00;;
77004;SDS011;67261;53.132;18.006;2024-01-30T03:36:10;29.80;;;15.00;;
77004;SDS011;67261;53.132;18.006;2024-01-30T03:38:37;30.30;;;15.90;;
77004;SDS011;67261;53.132;18.006;2024-01-30T03:41:07;30.90;;;15.00;;
77004;SDS011;67261;53.132;18.006;2024-01-30T03:43:34;33.70;;;16.20;;
77004;SDS011;67261;53.132;18.006;2024-01-30T03:46:01;35.10;;;18.20;;
77004;SDS011;67261;53.132;18.006;2024-01-30T03:48:29;34.50;;;17.00;;
77004;SDS011;67261;53.132;18.006;2024-01-30T03:50:56;35.60;;;18.20;;
77004;SDS011;67261;53.132;18.006;2024-01-30T03:53:23;36.10;;;16.80;;
77004;SDS011;67261;53.132;18.006;2024-01-30T03:55:50;32.20;;;16.00;;
77004;SDS011;67261;53.132;18.006;2024-01-30T03:58:17;33.50;;;16.20;;
77004;SDS011;67261;53.132;18.006;2024-01-30T04:00:44;30.00;;;15.50;;
77004;SDS011;67261;53.132;18.006;2024-01-30T04:03:11;29.90;;;15.80;;
77004;SDS011;67261;53.132;18.006;2024-01-30T04:05:38;34.50;;;17.00;;
77004;SDS011;67261;53.132;18.006;2024-01-30T04:08:05;32.80;;;15.80;;
77004;SDS011;67261;53.132;18.006;2024-01-30T04:10:33;32.60;;;15.30;;
77004;SDS011;67261;53.132;18.006;2024-01-30T04:13:00;34.70;;;15.70;;
77004;SDS011;67261;53.132;18.006;2024-01-30T04:15:27;28.50;;;14.60;;
77004;SDS011;67261;53.132;18.006;2024-01-30T04:17:58;29.50;;;15.40;;
77004;SDS011;67261;53.132;18.006;2024-01-30T04:20:25;29.20;;;14.50;;
77004;SDS011;67261;53.132;18.006;2024-01-30T04:22:53;27.70;;;14.20;;
77004;SDS011;67261;53.132;18.006;2024-01-30T04:25:20;28.40;;;14.90;;
77004;SDS011;67261;53.132;18.006;2024-01-30T04:27:47;37.00;;;15.80;;
77004;SDS011;67261;53.132;18.006;2024-01-30T04:30:14;28.40;;;14.40;;
77004;SDS011;67261;53.132;18.006;2024-01-30T04:32:42;32.50;;;15.90;;
77004;SDS011;67261;53.132;18.006;2024-01-30T04:37:36;26.30;;;13.20;;
77004;SDS011;67261;53.132;18.006;2024-01-30T04:40:03;30.10;;;14.60;;
77004;SDS011;67261;53.132;18.006;2024-01-30T04:42:31;30.70;;;15.00;;
77004;SDS011;67261;53.132;18.006;2024-01-30T04:44:58;28.20;;;14.10;;
77004;SDS011;67261;53.132;18.006;2024-01-30T04:47:25;29.00;;;12.60;;
77004;SDS011;67261;53.132;18.006;2024-01-30T04:49:52;31.70;;;15.40;;
77004;SDS011;67261;53.132;18.006;2024-01-30T04:52:19;33.50;;;18.20;;
77004;SDS011;67261;53.132;18.006;2024-01-30T04:54:47;29.70;;;14.40;;
77004;SDS011;67261;53.132;18.006;2024-01-30T04:57:14;31.30;;;15.50;;
77004;SDS011;67261;53.132;18.006;2024-01-30T04:59:40;32.00;;;15.40;;
77004;SDS011;67261;53.132;18.006;2024-01-30T05:02:07;29.60;;;15.80;;
77004;SDS011;67261;53.132;18.006;2024-01-30T05:04:34;27.00;;;14.90;;
77004;SDS011;67261;53.132;18.006;2024-01-30T05:07:01;32.50;;;14.90;;
77004;SDS011;67261;53.132;18.006;2024-01-30T05:09:28;30.80;;;15.40;;
77004;SDS011;67261;53.132;18.006;2024-01-30T05:11:55;47.80;;;24.80;;
77004;SDS011;67261;53.132;18.006;2024-01-30T05:14:22;31.50;;;16.00;;
77004;SDS011;67261;53.132;18.006;2024-01-30T05:16:49;34.00;;;18.90;;
77004;SDS011;67261;53.132;18.006;2024-01-30T05:19:16;30.40;;;15.60;;
77004;SDS011;67261;53.132;18.006;2024-01-30T05:21:44;31.30;;;16.30;;
77004;SDS011;67261;53.132;18.006;2024-01-30T05:24:10;28.90;;;14.20;;
77004;SDS011;67261;53.132;18.006;2024-01-30T05:26:38;28.10;;;13.20;;
77004;SDS011;67261;53.132;18.006;2024-01-30T05:29:05;31.90;;;14.30;;
77004;SDS011;67261;53.132;18.006;2024-01-30T05:31:33;31.60;;;14.80;;
77004;SDS011;67261;53.132;18.006;2024-01-30T05:34:01;31.70;;;16.60;;
77004;SDS011;67261;53.132;18.006;2024-01-30T05:36:28;42.70;;;20.30;;
77004;SDS011;67261;53.132;18.006;2024-01-30T05:38:55;44.80;;;22.70;;
77004;SDS011;67261;53.132;18.006;2024-01-30T05:41:23;40.50;;;20.20;;
77004;SDS011;67261;53.132;18.006;2024-01-30T05:43:50;34.60;;;16.30;;
77004;SDS011;67261;53.132;18.006;2024-01-30T05:46:17;36.70;;;16.60;;
77004;SDS011;67261;53.132;18.006;2024-01-30T05:48:44;32.70;;;16.50;;
77004;SDS011;67261;53.132;18.006;2024-01-30T05:51:11;39.10;;;17.00;;
77004;SDS011;67261;53.132;18.006;2024-01-30T05:53:38;38.20;;;17.30;;
77004;SDS011;67261;53.132;18.006;2024-01-30T05:56:05;37.30;;;17.80;;
77004;SDS011;67261;53.132;18.006;2024-01-30T05:58:33;34.90;;;16.00;;
77004;SDS011;67261;53.132;18.006;2024-01-30T06:01:00;41.00;;;15.50;;
77004;SDS011;67261;53.132;18.006;2024-01-30T06:03:27;42.30;;;18.20;;
77004;SDS011;67261;53.132;18.006;2024-01-30T06:05:53;35.20;;;17.00;;
77004;SDS011;67261;53.132;18.006;2024-01-30T06:08:20;34.90;;;17.40;;
77004;SDS011;67261;53.132;18.006;2024-01-30T06:10:47;35.50;;;14.90;;
77004;SDS011;67261;53.132;18.006;2024-01-30T06:13:14;34.10;;;16.80;;
77004;SDS011;67261;53.132;18.006;2024-01-30T06:15:41;32.30;;;13.60;;
77004;SDS011;67261;53.132;18.006;2024-01-30T06:18:09;30.90;;;14.10;;
77004;SDS011;67261;53.132;18.006;2024-01-30T06:20:36;28.30;;;13.60;;
77004;SDS011;67261;53.132;18.006;2024-01-30T06:23:02;33.00;;;14.80;;
77004;SDS011;67261;53.132;18.006;2024-01-30T06:25:30;30.80;;;13.10;;
77004;SDS011;67261;53.132;18.006;2024-01-30T06:27:57;27.80;;;14.80;;
77004;SDS011;67261;53.132;18.006;2024-01-30T06:30:23;31.20;;;14.00;;
77004;SDS011;67261;53.132;18.006;2024-01-30T06:32:50;26.00;;;12.90;;
77004;SDS011;67261;53.132;18.006;2024-01-30T06:35:17;25.60;;;12.50;;
77004;SDS011;67261;53.132;18.006;2024-01-30T06:37:44;26.50;;;13.40;;
77004;SDS011;67261;53.132;18.006;2024-01-30T06:40:12;26.50;;;13.90;;
77004;SDS011;67261;53.132;18.006;2024-01-30T06:42:39;25.50;;;12.60;;
77004;SDS011;67261;53.132;18.006;2024-01-30T06:45:06;28.40;;;13.30;;
77004;SDS011;67261;53.132;18.006;2024-01-30T06:47:34;27.40;;;12.90;;
77004;SDS011;67261;53.132;18.006;2024-01-30T06:50:01;25.20;;;11.30;;
77004;SDS011;67261;53.132;18.006;2024-01-30T06:52:30;27.20;;;13.70;;
77004;SDS011;67261;53.132;18.006;2024-01-30T06:54:56;24.40;;;13.00;;
77004;SDS011;67261;53.132;18.006;2024-01-30T06:57:23;26.40;;;13.30;;
77004;SDS011;67261;53.132;18.006;2024-01-30T06:59:50;28.30;;;12.60;;
77004;SDS011;67261;53.132;18.006;2024-01-30T07:02:17;29.30;;;14.50;;
77004;SDS011;67261;53.132;18.006;2024-01-30T07:04:44;25.60;;;12.50;;
77004;SDS011;67261;53.132;18.006;2024-01-30T07:07:11;24.50;;;12.70;;
77004;SDS011;67261;53.132;18.006;2024-01-30T07:12:06;26.40;;;11.20;;
77004;SDS011;67261;53.132;18.006;2024-01-30T07:14:33;24.70;;;13.40;;
77004;SDS011;67261;53.132;18.006;2024-01-30T07:17:01;25.70;;;12.00;;
77004;SDS011;67261;53.132;18.006;2024-01-30T07:19:28;25.70;;;13.10;;
77004;SDS011;67261;53.132;18.006;2024-01-30T07:21:55;27.30;;;14.40;;
77004;SDS011;67261;53.132;18.006;2024-01-30T07:24:22;31.60;;;15.50;;
77004;SDS011;67261;53.132;18.006;2024-01-30T07:26:48;28.30;;;13.80;;
77004;SDS011;67261;53.132;18.006;2024-01-30T07:29:15;27.70;;;13.40;;
77004;SDS011;67261;53.132;18.006;2024-01-30T07:31:42;25.50;;;13.70;;
77004;SDS011;67261;53.132;18.006;2024-01-30T07:34:11;27.30;;;13.90;;
77004;SDS011;67261;53.132;18.006;2024-01-30T07:36:38;29.40;;;15.00;;
77004;SDS011;67261;53.132;18.006;2024-01-30T07:39:06;26.60;;;14.90;;
77004;SDS011;67261;53.132;18.006;2024-01-30T07:41:33;25.70;;;13.80;;
77004;SDS011;67261;53.132;18.006;2024-01-30T07:44:00;27.40;;;14.80;;
77004;SDS011;67261;53.132;18.006;2024-01-30T07:46:27;28.40;;;14.40;;
77004;SDS011;67261;53.132;18.006;2024-01-30T07:48:54;28.80;;;15.30;;
77004;SDS011;67261;53.132;18.006;2024-01-30T07:51:23;24.60;;;14.10;;
77004;SDS011;67261;53.132;18.006;2024-01-30T07:53:50;25.50;;;14.70;;
77004;SDS011;67261;53.132;18.006;2024-01-30T07:56:17;24.80;;;14.20;;
77004;SDS011;67261;53.132;18.006;2024-01-30T07:58:44;27.00;;;16.70;;
77004;SDS011;67261;53.132;18.006;2024-01-30T08:01:11;30.20;;;18.50;;
77004;SDS011;67261;53.132;18.006;2024-01-30T08:03:39;35.40;;;24.80;;
77004;SDS011;67261;53.132;18.006;2024-01-30T08:06:08;33.80;;;20.90;;
77004;SDS011;67261;53.132;18.006;2024-01-30T08:08:36;35.20;;;23.40;;
77004;SDS011;67261;53.132;18.006;2024-01-30T08:11:04;37.30;;;21.30;;
77004;SDS011;67261;53.132;18.006;2024-01-30T08:13:34;33.30;;;21.30;;
77004;SDS011;67261;53.132;18.006;2024-01-30T08:16:03;35.60;;;20.90;;
77004;SDS011;67261;53.132;18.006;2024-01-30T08:18:31;38.00;;;22.10;;
77004;SDS011;67261;53.132;18.006;2024-01-30T08:20:58;36.00;;;21.80;;
77004;SDS011;67261;53.132;18.006;2024-01-30T08:23:26;37.60;;;21.80;;
77004;SDS011;67261;53.132;18.006;2024-01-30T08:25:53;33.20;;;20.90;;
77004;SDS011;67261;53.132;18.006;2024-01-30T08:28:20;38.80;;;23.00;;
77004;SDS011;67261;53.132;18.006;2024-01-30T08:30:47;36.30;;;20.50;;
77004;SDS011;67261;53.132;18.006;2024-01-30T08:33:14;56.00;;;28.60;;
77004;SDS011;67261;53.132;18.006;2024-01-30T08:35:41;45.20;;;22.70;;
77004;SDS011;67261;53.132;18.006;2024-01-30T08:38:08;48.00;;;25.90;;
77004;SDS011;67261;53.132;18.006;2024-01-30T08:40:35;68.10;;;38.40;;
77004;SDS011;67261;53.132;18.006;2024-01-30T08:45:30;101.60;;;51.20;;
77004;SDS011;67261;53.132;18.006;2024-01-30T08:47:57;99.30;;;50.40;;
77004;SDS011;67261;53.132;18.006;2024-01-30T08:50:24;70.00;;;39.10;;
77004;SDS011;67261;53.132;18.006;2024-01-30T08:52:52;63.20;;;36.70;;
77004;SDS011;67261;53.132;18.006;2024-01-30T08:55:19;45.60;;;24.20;;
77004;SDS011;67261;53.132;18.006;2024-01-30T08:57:46;41.20;;;23.90;;
77004;SDS011;67261;53.132;18.006;2024-01-30T09:00:13;49.10;;;25.80;;
77004;SDS011;67261;53.132;18.006;2024-01-30T09:05:08;118.10;;;46.10;;
77004;SDS011;67261;53.132;18.006;2024-01-30T09:07:35;87.90;;;37.30;;
77004;SDS011;67261;53.132;18.006;2024-01-30T09:10:02;62.50;;;28.20;;
77004;SDS011;67261;53.132;18.006;2024-01-30T09:12:29;98.90;;;42.50;;
77004;SDS011;67261;53.132;18.006;2024-01-30T09:14:56;64.70;;;29.60;;
77004;SDS011;67261;53.132;18.006;2024-01-30T09:17:23;62.30;;;30.60;;
77004;SDS011;67261;53.132;18.006;2024-01-30T09:19:49;66.70;;;34.30;;
77004;SDS011;67261;53.132;18.006;2024-01-30T09:22:16;71.40;;;37.10;;
77004;SDS011;67261;53.132;18.006;2024-01-30T09:24:45;40.60;;;22.80;;
77004;SDS011;67261;53.132;18.006;2024-01-30T09:27:12;41.30;;;27.20;;
77004;SDS011;67261;53.132;18.006;2024-01-30T09:29:40;42.30;;;26.00;;
77004;SDS011;67261;53.132;18.006;2024-01-30T09:32:06;33.10;;;19.10;;
77004;SDS011;67261;53.132;18.006;2024-01-30T09:34:35;35.00;;;21.70;;
77004;SDS011;67261;53.132;18.006;2024-01-30T09:37:02;29.40;;;20.30;;
77004;SDS011;67261;53.132;18.006;2024-01-30T09:39:29;31.60;;;19.70;;
77004;SDS011;67261;53.132;18.006;2024-01-30T09:44:52;22.30;;;14.70;;
77004;SDS011;67261;53.132;18.006;2024-01-30T09:47:20;28.80;;;14.90;;
77004;SDS011;67261;53.132;18.006;2024-01-30T09:49:47;36.10;;;18.30;;
77004;SDS011;67261;53.132;18.006;2024-01-30T09:52:15;37.20;;;18.40;;
77004;SDS011;67261;53.132;18.006;2024-01-30T09:54:42;32.50;;;16.30;;
77004;SDS011;67261;53.132;18.006;2024-01-30T09:57:11;31.90;;;16.30;;
77004;SDS011;67261;53.132;18.006;2024-01-30T09:59:38;29.10;;;15.50;;
77004;SDS011;67261;53.132;18.006;2024-01-30T10:02:06;26.90;;;14.80;;
77004;SDS011;67261;53.132;18.006;2024-01-30T10:04:34;27.70;;;14.70;;
77004;SDS011;67261;53.132;18.006;2024-01-30T10:07:01;28.70;;;15.50;;
77004;SDS011;67261;53.132;18.006;2024-01-30T10:09:31;25.10;;;13.70;;
77004;SDS011;67261;53.132;18.006;2024-01-30T10:12:00;29.80;;;14.00;;
77004;SDS011;67261;53.132;18.006;2024-01-30T10:14:30;21.50;;;12.20;;
77004;SDS011;67261;53.132;18.006;2024-01-30T10:16:57;24.50;;;13.00;;
77004;SDS011;67261;53.132;18.006;2024-01-30T10:19:24;24.50;;;13.00;;
77004;SDS011;67261;53.132;18.006;2024-01-30T10:21:52;23.70;;;12.30;;
77004;SDS011;67261;53.132;18.006;2024-01-30T10:24:23;24.20;;;13.10;;
77004;SDS011;67261;53.132;18.006;2024-01-30T10:26:51;26.40;;;13.20;;
77004;SDS011;67261;53.132;18.006;2024-01-30T10:29:18;25.80;;;14.80;;
77004;SDS011;67261;53.132;18.006;2024-01-30T10:31:45;23.80;;;13.90;;
77004;SDS011;67261;53.132;18.006;2024-01-30T10:34:13;23.30;;;12.50;;
77004;SDS011;67261;53.132;18.006;2024-01-30T10:36:40;24.50;;;13.10;;
77004;SDS011;67261;53.132;18.006;2024-01-30T10:39:10;22.30;;;12.80;;
77004;SDS011;67261;53.132;18.006;2024-01-30T10:41:43;25.40;;;13.60;;
77004;SDS011;67261;53.132;18.006;2024-01-30T10:44:11;21.50;;;11.70;;
77004;SDS011;67261;53.132;18.006;2024-01-30T10:46:38;25.40;;;12.60;;
77004;SDS011;67261;53.132;18.006;2024-01-30T10:49:06;25.40;;;13.10;;
77004;SDS011;67261;53.132;18.006;2024-01-30T10:51:33;25.90;;;12.70;;
77004;SDS011;67261;53.132;18.006;2024-01-30T10:54:02;24.10;;;12.70;;
77004;SDS011;67261;53.132;18.006;2024-01-30T10:56:32;28.00;;;14.00;;
77004;SDS011;67261;53.132;18.006;2024-01-30T10:59:00;28.00;;;13.70;;
77004;SDS011;67261;53.132;18.006;2024-01-30T11:01:27;29.10;;;15.20;;
77004;SDS011;67261;53.132;18.006;2024-01-30T11:03:57;29.60;;;14.90;;
77004;SDS011;67261;53.132;18.006;2024-01-30T11:06:25;29.40;;;15.60;;
77004;SDS011;67261;53.132;18.006;2024-01-30T11:09:03;25.80;;;14.10;;
77004;SDS011;67261;53.132;18.006;2024-01-30T11:11:30;28.20;;;14.40;;
77004;SDS011;67261;53.132;18.006;2024-01-30T11:14:00;24.50;;;12.80;;
77004;SDS011;67261;53.132;18.006;2024-01-30T11:16:30;21.50;;;11.90;;
77004;SDS011;67261;53.132;18.006;2024-01-30T11:19:04;25.50;;;12.10;;
77004;SDS011;67261;53.132;18.006;2024-01-30T11:21:43;23.20;;;13.20;;
77004;SDS011;67261;53.132;18.006;2024-01-30T11:24:14;25.70;;;14.00;;
77004;SDS011;67261;53.132;18.006;2024-01-30T11:26:44;20.70;;;11.20;;
77004;SDS011;67261;53.132;18.006;2024-01-30T11:29:13;21.70;;;11.10;;
77004;SDS011;67261;53.132;18.006;2024-01-30T11:31:51;21.80;;;11.60;;
77004;SDS011;67261;53.132;18.006;2024-01-30T11:34:20;22.70;;;11.80;;
77004;SDS011;67261;53.132;18.006;2024-01-30T11:36:53;21.90;;;11.80;;
77004;SDS011;67261;53.132;18.006;2024-01-30T11:39:28;19.90;;;11.10;;
77004;SDS011;67261;53.132;18.006;2024-01-30T11:41:56;21.40;;;11.20;;
77004;SDS011;67261;53.132;18.006;2024-01-30T11:44:28;19.50;;;10.00;;
77004;SDS011;67261;53.132;18.006;2024-01-30T11:46:55;21.10;;;10.10;;
77004;SDS011;67261;53.132;18.006;2024-01-30T11:49:23;17.60;;;9.50;;
77004;SDS011;67261;53.132;18.006;2024-01-30T11:51:54;18.20;;;11.10;;
77004;SDS011;67261;53.132;18.006;2024-01-30T11:54:22;21.10;;;10.10;;
77004;SDS011;67261;53.132;18.006;2024-01-30T11:56:50;19.50;;;10.40;;
77004;SDS011;67261;53.132;18.006;2024-01-30T11:59:17;22.50;;;12.20;;
77004;SDS011;67261;53.132;18.006;2024-01-30T12:01:45;26.90;;;12.20;;
77004;SDS011;67261;53.132;18.006;2024-01-30T12:04:17;29.60;;;13.40;;
77004;SDS011;67261;53.132;18.006;2024-01-30T12:09:15;22.90;;;11.60;;
77004;SDS011;67261;53.132;18.006;2024-01-30T12:11:47;22.10;;;11.90;;
77004;SDS011;67261;53.132;18.006;2024-01-30T12:14:18;28.60;;;15.10;;
77004;SDS011;67261;53.132;18.006;2024-01-30T12:16:50;27.80;;;14.60;;
77004;SDS011;67261;53.132;18.006;2024-01-30T12:19:23;22.20;;;12.20;;
77004;SDS011;67261;53.132;18.006;2024-01-30T12:24:22;23.50;;;11.00;;
77004;SDS011;67261;53.132;18.006;2024-01-30T12:26:50;24.20;;;10.50;;
77004;SDS011;67261;53.132;18.006;2024-01-30T12:29:19;22.90;;;11.80;;
77004;SDS011;67261;53.132;18.006;2024-01-30T12:31:47;23.80;;;11.60;;
77004;SDS011;67261;53.132;18.006;2024-01-30T12:34:14;21.40;;;11.30;;
77004;SDS011;67261;53.132;18.006;2024-01-30T12:36:47;19.10;;;10.80;;
77004;SDS011;67261;53.132;18.006;2024-01-30T12:39:16;18.10;;;10.00;;
77004;SDS011;67261;53.132;18.006;2024-01-30T12:41:44;18.90;;;10.40;;
77004;SDS011;67261;53.132;18.006;2024-01-30T12:44:11;19.70;;;9.90;;
77004;SDS011;67261;53.132;18.006;2024-01-30T12:46:47;20.20;;;10.10;;
77004;SDS011;67261;53.132;18.006;2024-01-30T12:49:14;15.40;;;9.90;;
77004;SDS011;67261;53.132;18.006;2024-01-30T12:51:42;18.20;;;10.30;;
77004;SDS011;67261;53.132;18.006;2024-01-30T12:54:09;19.50;;;10.70;;
77004;SDS011;67261;53.132;18.006;2024-01-30T12:56:36;21.80;;;11.20;;
77004;SDS011;67261;53.132;18.006;2024-01-30T12:59:03;19.10;;;10.40;;
77004;SDS011;67261;53.132;18.006;2024-01-30T13:01:30;22.10;;;11.90;;
77004;SDS011;67261;53.132;18.006;2024-01-30T13:03:57;19.70;;;10.60;;
77004;SDS011;67261;53.132;18.006;2024-01-30T13:06:25;17.60;;;10.60;;
77004;SDS011;67261;53.132;18.006;2024-01-30T13:08:52;19.50;;;10.00;;
77004;SDS011;67261;53.132;18.006;2024-01-30T13:11:19;18.90;;;9.80;;
77004;SDS011;67261;53.132;18.006;2024-01-30T13:13:46;21.40;;;11.70;;
77004;SDS011;67261;53.132;18.006;2024-01-30T13:16:13;18.80;;;10.60;;
77004;SDS011;67261;53.132;18.006;2024-01-30T13:18:40;18.00;;;10.30;;
77004;SDS011;67261;53.132;18.006;2024-01-30T13:21:08;18.00;;;10.90;;
77004;SDS011;67261;53.132;18.006;2024-01-30T13:23:35;20.60;;;11.50;;
77004;SDS011;67261;53.132;18.006;2024-01-30T13:26:02;21.70;;;11.10;;
77004;SDS011;67261;53.132;18.006;2024-01-30T13:28:29;21.40;;;13.10;;
77004;SDS011;67261;53.132;18.006;2024-01-30T13:30:56;23.00;;;11.70;;
77004;SDS011;67261;53.132;18.006;2024-01-30T13:33:23;20.90;;;12.20;;
77004;SDS011;67261;53.132;18.006;2024-01-30T13:35:50;19.30;;;11.30;;
77004;SDS011;67261;53.132;18.006;2024-01-30T13:38:17;19.40;;;10.60;;
77004;SDS011;67261;53.132;18.006;2024-01-30T13:40:44;20.00;;;11.00;;
77004;SDS011;67261;53.132;18.006;2024-01-30T13:43:12;15.90;;;10.00;;
77004;SDS011;67261;53.132;18.006;2024-01-30T13:45:40;19.40;;;10.20;;
77004;SDS011;67261;53.132;18.006;2024-01-30T13:48:09;18.60;;;10.00;;
77004;SDS011;67261;53.132;18.006;2024-01-30T13:50:36;17.50;;;9.30;;
77004;SDS011;67261;53.132;18.006;2024-01-30T13:53:03;18.30;;;10.50;;
77004;SDS011;67261;53.132;18.006;2024-01-30T13:55:34;19.00;;;10.60;;
77004;SDS011;67261;53.132;18.006;2024-01-30T13:58:01;22.60;;;10.70;;
77004;SDS011;67261;53.132;18.006;2024-01-30T14:00:28;23.90;;;12.70;;
77004;SDS011;67261;53.132;18.006;2024-01-30T14:02:55;20.50;;;12.00;;
77004;SDS011;67261;53.132;18.006;2024-01-30T14:05:23;20.70;;;11.20;;
77004;SDS011;67261;53.132;18.006;2024-01-30T14:07:50;20.20;;;11.40;;
77004;SDS011;67261;53.132;18.006;2024-01-30T14:10:18;19.10;;;10.30;;
77004;SDS011;67261;53.132;18.006;2024-01-30T14:12:45;19.70;;;10.30;;
77004;SDS011;67261;53.132;18.006;2024-01-30T14:15:14;19.90;;;10.60;;
77004;SDS011;67261;53.132;18.006;2024-01-30T14:17:44;19.10;;;11.70;;
77004;SDS011;67261;53.132;18.006;2024-01-30T14:20:11;17.40;;;10.00;;
77004;SDS011;67261;53.132;18.006;2024-01-30T14:22:39;21.00;;;12.00;;
77004;SDS011;67261;53.132;18.006;2024-01-30T14:25:06;27.20;;;17.90;;
77004;SDS011;67261;53.132;18.006;2024-01-30T14:27:34;32.90;;;21.40;;
77004;SDS011;67261;53.132;18.006;2024-01-30T14:30:02;35.40;;;21.40;;